Time;durP1;ratioP1;P1;durP2;ratioP2;P2;SDS_P1;SDS_P2;PMS_P1;PMS_P2;Temp;Humidity;BMP_temperature;BMP_pressure;BME280_temperature;BME280_humidity;BME280_pressure;Samples;Min_cycle;Max_cycle;Signal;HPM_P1;HPM_P2
2022/09/14 00:00:40;;;;;;;3.08;1.42;;;;;;;19.04;69.15;97382.34;7386827;19;20011;-71
2022/09/14 00:03:07;;;;;;;2.40;1.87;;;;;;;19.03;68.81;97380.72;7388177;19;20054;-71
2022/09/14 00:05:34;;;;;;;6.00;1.92;;;;;;;19.03;68.38;97379.91;7384962;19;20024;-70
2022/09/14 00:08:02;;;;;;;4.18;2.00;;;;;;;19.07;68.34;97378.41;7387156;19;20042;-70
2022/09/14 00:10:29;;;;;;;3.05;1.75;;;;;;;19.05;67.77;97377.81;7386155;19;20039;-71
2022/09/14 00:12:56;;;;;;;2.38;1.67;;;;;;;19.03;68.36;97374.53;7388895;19;20007;-71
2022/09/14 00:15:23;;;;;;;5.40;2.03;;;;;;;19.05;68.34;97367.09;7382119;19;20019;-70
2022/09/14 00:17:50;;;;;;;3.28;2.38;;;;;;;19.02;68.29;97370.25;7384661;19;20017;-70
2022/09/14 00:20:21;;;;;;;4.53;1.88;;;;;;;19.02;68.45;97364.88;7388916;19;20018;-70
2022/09/14 00:22:48;;;;;;;1.63;1.53;;;;;;;19.00;68.74;97364.28;7389212;19;20060;-71
2022/09/14 00:25:15;;;;;;;5.10;1.83;;;;;;;19.02;68.96;97368.38;7386129;19;20014;-71
2022/09/14 00:27:42;;;;;;;3.53;1.80;;;;;;;19.07;69.30;97365.00;7381981;19;20588;-70
2022/09/14 00:30:09;;;;;;;2.92;1.52;;;;;;;19.02;70.17;97354.16;7386254;19;20015;-71
2022/09/14 00:32:36;;;;;;;2.78;1.80;;;;;;;19.05;69.54;97351.00;7387239;19;20011;-71
2022/09/14 00:35:03;;;;;;;2.22;1.67;;;;;;;19.02;69.48;97341.56;7383503;19;20863;-71
2022/09/14 00:37:30;;;;;;;2.22;2.03;;;;;;;18.98;69.76;97328.84;7385264;19;20018;-71
2022/09/14 00:39:57;;;;;;;2.05;1.70;;;;;;;18.99;69.91;97319.78;7385085;19;20085;-70
2022/09/14 00:42:24;;;;;;;3.30;1.98;;;;;;;19.00;69.62;97316.03;7385699;19;20022;-71
2022/09/14 00:44:51;;;;;;;3.30;1.77;;;;;;;19.05;69.79;97321.50;7382877;19;20046;-71
2022/09/14 00:47:18;;;;;;;2.88;1.40;;;;;;;18.96;70.52;97317.59;7384831;19;20056;-71
2022/09/14 00:49:45;;;;;;;1.95;1.63;;;;;;;18.96;70.12;97312.22;7384296;19;20018;-70
2022/09/14 00:52:15;;;;;;;2.78;1.70;;;;;;;18.95;70.25;97311.38;7385586;19;20042;-71
2022/09/14 00:54:48;;;;;;;3.83;1.95;;;;;;;18.94;70.37;97304.41;7382526;19;20046;-71
2022/09/14 00:57:15;;;;;;;2.40;1.65;;;;;;;18.94;70.89;97315.13;7382264;19;20018;-71
2022/09/14 00:59:43;;;;;;;1.73;1.60;;;;;;;18.94;70.81;97301.72;7375280;19;20044;-71
2022/09/14 01:02:13;;;;;;;3.22;1.95;;;;;;;18.95;71.22;97300.66;7382196;19;20758;-71
2022/09/14 01:04:41;;;;;;;7.28;2.00;;;;;;;18.94;71.68;97306.28;7384041;19;20026;-71
2022/09/14 01:07:22;;;;;;;5.85;2.35;;;;;;;18.96;71.13;97296.94;7383254;19;20393;-71
2022/09/14 01:10:22;;;;;;;3.00;1.90;;;;;;;19.01;71.16;97285.50;7384526;19;20025;-71
2022/09/14 01:13:07;;;;;;;2.55;1.75;;;;;;;19.05;70.33;97282.13;7384178;19;20014;-71
2022/09/14 01:15:48;;;;;;;3.92;1.83;;;;;;;19.03;70.63;97280.72;7376782;19;20022;-71
2022/09/14 01:18:37;;;;;;;2.93;1.50;;;;;;;19.01;70.45;97278.28;7382309;19;20043;-71
2022/09/14 01:21:21;;;;;;;4.28;1.98;;;;;;;19.04;70.07;97268.97;7384586;19;20011;-71
2022/09/14 01:23:58;;;;;;;1.95;1.85;;;;;;;19.09;69.82;97255.66;7381227;19;20022;-71
2022/09/14 01:26:58;;;;;;;2.10;1.88;;;;;;;18.94;70.64;97255.34;7385319;19;20383;-71
2022/09/14 01:29:41;;;;;;;2.22;1.60;;;;;;;18.81;71.22;97269.81;7386079;19;20046;-71
2022/09/14 01:32:19;;;;;;;5.40;2.42;;;;;;;18.67;72.59;97289.81;7383029;19;20023;-71
2022/09/14 01:34:57;;;;;;;2.58;2.22;;;;;;;18.37;75.79;97363.06;7382117;19;20018;-71
2022/09/14 01:37:46;;;;;;;3.53;2.15;;;;;;;18.36;75.00;97405.09;7384826;19;20014;-70
2022/09/14 01:40:16;;;;;;;3.45;2.00;;;;;;;18.39;74.05;97412.66;7380949;19;20018;-71
2022/09/14 01:42:45;;;;;;;10.05;3.03;;;;;;;18.25;77.14;97419.28;7384388;19;20029;-73
2022/09/14 01:45:15;;;;;;;30.48;6.78;;;;;;;18.04;80.62;97369.75;7383807;19;20024;-73
2022/09/14 01:47:47;;;;;;;20.02;5.18;;;;;;;17.82;82.78;97379.31;7383367;19;20022;-72
2022/09/14 01:50:27;;;;;;;21.73;6.05;;;;;;;17.69;84.15;97380.25;7383447;19;20018;-72
2022/09/14 01:52:58;;;;;;;13.40;4.93;;;;;;;17.64;84.83;97388.13;7384801;19;20044;-71
2022/09/14 01:55:33;;;;;;;19.98;5.28;;;;;;;17.61;85.33;97380.56;7381323;19;20015;-72
2022/09/14 01:58:30;;;;;;;17.65;4.63;;;;;;;17.62;85.66;97371.53;7379789;19;20015;-72
2022/09/14 02:01:00;;;;;;;11.43;4.53;;;;;;;17.63;85.39;97378.50;7382098;19;20014;-71
2022/09/14 02:03:31;;;;;;;13.35;3.95;;;;;;;17.61;85.99;97385.91;7383860;19;20051;-73
2022/09/14 02:06:02;;;;;;;6.70;2.97;;;;;;;17.64;85.84;97401.50;7382553;19;20375;-72
2022/09/14 02:08:29;;;;;;;11.48;3.92;;;;;;;17.63;85.78;97410.59;7381169;19;20011;-71
2022/09/14 02:10:56;;;;;;;10.77;3.75;;;;;;;17.64;85.82;97414.88;7384019;19;20018;-73
2022/09/14 02:13:24;;;;;;;16.98;4.00;;;;;;;17.67;86.05;97419.81;7382801;19;20023;-73
2022/09/14 02:15:51;;;;;;;10.15;3.05;;;;;;;17.74;86.25;97420.53;7381283;19;20042;-73
2022/09/14 02:18:18;;;;;;;7.00;2.75;;;;;;;17.71;86.68;97410.28;7390323;19;20022;-73
2022/09/14 02:20:50;;;;;;;7.93;3.05;;;;;;;17.73;86.75;97416.22;7386998;19;20018;-72
2022/09/14 02:23:17;;;;;;;12.02;3.90;;;;;;;17.77;86.48;97406.69;7387944;19;20489;-73
2022/09/14 02:25:45;;;;;;;9.02;3.38;;;;;;;17.79;86.45;97410.00;7386923;19;20018;-74
2022/09/14 02:28:13;;;;;;;8.07;3.20;;;;;;;17.76;86.90;97408.56;7388554;19;20043;-74
2022/09/14 02:31:07;;;;;;;6.28;3.63;;;;;;;17.80;86.95;97411.66;7389898;19;20018;-74
2022/09/14 02:34:24;;;;;;;8.30;3.08;;;;;;;17.87;86.80;97379.44;7390861;19;20018;-74
2022/09/14 02:36:59;;;;;;;11.85;3.72;;;;;;;17.79;87.30;97375.22;7387737;19;20014;-73
2022/09/14 02:39:43;;;;;;;4.43;3.70;;;;;;;17.78;87.35;97384.28;7386897;19;20011;-73
2022/09/14 02:42:16;;;;;;;6.85;3.28;;;;;;;17.75;87.75;97384.72;7386805;19;20474;-73
2022/09/14 02:45:09;;;;;;;9.32;3.35;;;;;;;17.78;87.95;97384.28;7387739;19;20011;-74
2022/09/14 02:47:45;;;;;;;7.97;4.38;;;;;;;17.76;88.14;97379.13;7386164;19;20014;-73
2022/09/14 02:50:23;;;;;;;6.38;3.40;;;;;;;17.78;88.08;97390.44;7387629;19;20019;-74
2022/09/14 02:52:59;;;;;;;8.57;3.72;;;;;;;17.76;88.45;97389.03;7391468;19;20034;-73
2022/09/14 02:55:30;;;;;;;6.05;3.97;;;;;;;17.77;88.34;97388.81;7385898;19;20014;-74
2022/09/14 02:58:03;;;;;;;9.07;4.47;;;;;;;17.78;88.38;97393.09;7385093;19;20011;-74
2022/09/14 03:00:31;;;;;;;11.60;4.10;;;;;;;17.82;88.14;97382.78;7388967;19;20046;-74
2022/09/14 03:02:58;;;;;;;5.97;3.85;;;;;;;17.84;88.03;97370.00;7389078;19;20011;-73
2022/09/14 03:05:24;;;;;;;8.10;4.00;;;;;;;17.82;88.02;97369.41;7387341;19;20490;-73
2022/09/14 03:07:51;;;;;;;8.93;3.78;;;;;;;17.84;87.89;97361.16;7389428;19;20056;-74
2022/09/14 03:10:18;;;;;;;9.32;3.92;;;;;;;17.87;87.71;97352.69;7390501;19;20051;-74
2022/09/14 03:12:45;;;;;;;11.23;3.58;;;;;;;17.82;87.96;97344.53;7389113;19;20018;-73
2022/09/14 03:15:11;;;;;;;10.95;4.07;;;;;;;17.86;87.63;97346.53;7386778;19;20011;-73
2022/09/14 03:17:38;;;;;;;8.55;4.63;;;;;;;17.77;87.92;97353.19;7390080;19;20381;-73
2022/09/14 03:20:10;;;;;;;8.25;4.45;;;;;;;17.68;88.37;97349.22;7385919;19;20014;-71
2022/09/14 03:22:37;;;;;;;5.80;3.80;;;;;;;17.71;88.25;97341.53;7388228;19;20010;-72
2022/09/14 03:25:04;;;;;;;7.75;4.30;;;;;;;17.74;88.34;97342.94;7383152;19;20011;-73
2022/09/14 03:27:30;;;;;;;7.30;4.35;;;;;;;17.73;88.68;97344.00;7386184;19;20478;-73
2022/09/14 03:29:57;;;;;;;7.72;4.25;;;;;;;17.75;88.67;97334.72;7386041;19;20022;-73
2022/09/14 03:32:23;;;;;;;10.77;4.45;;;;;;;17.73;88.85;97339.47;7386466;19;20035;-73
2022/09/14 03:34:50;;;;;;;12.52;4.90;;;;;;;17.69;88.99;97332.94;7387569;19;20026;-74
2022/09/14 03:37:17;;;;;;;8.35;4.20;;;;;;;17.69;88.85;97334.78;7385932;19;20392;-72
2022/09/14 03:39:43;;;;;;;11.68;5.07;;;;;;;17.66;88.75;97321.88;7386147;19;20496;-74
2022/09/14 03:42:10;;;;;;;13.18;5.38;;;;;;;17.68;88.49;97325.94;7385578;19;20035;-74
2022/09/14 03:44:37;;;;;;;9.95;4.78;;;;;;;17.66;88.64;97319.19;7388002;19;20075;-72
2022/09/14 03:47:04;;;;;;;13.55;4.78;;;;;;;17.67;88.57;97332.34;7385411;19;20043;-74
2022/09/14 03:49:30;;;;;;;7.18;5.18;;;;;;;17.70;88.54;97329.22;7388186;19;20018;-74
2022/09/14 03:51:57;;;;;;;12.10;5.13;;;;;;;17.72;88.49;97318.28;7386798;19;20014;-74
2022/09/14 03:54:25;;;;;;;10.05;7.35;;;;;;;17.59;89.24;97305.09;7384705;19;20382;-74
2022/09/14 03:56:53;;;;;;;16.80;7.80;;;;;;;17.63;89.08;97308.94;7387542;19;20014;-74
2022/09/14 03:59:19;;;;;;;12.77;7.13;;;;;;;17.73;88.91;97309.22;7388400;19;20018;-73
2022/09/14 04:01:46;;;;;;;15.45;8.48;;;;;;;17.73;88.56;97306.56;7385469;19;20015;-73
2022/09/14 04:04:14;;;;;;;9.57;6.97;;;;;;;17.74;88.35;97297.47;7384714;19;20014;-74
2022/09/14 04:06:41;;;;;;;9.13;5.90;;;;;;;17.70;88.06;97296.31;7386439;19;20010;-74
2022/09/14 04:09:08;;;;;;;10.90;6.18;;;;;;;17.66;88.14;97289.78;7387279;19;20060;-74
2022/09/14 04:11:35;;;;;;;16.65;6.80;;;;;;;17.63;88.18;97284.88;7388287;19;20359;-72
2022/09/14 04:14:03;;;;;;;8.60;5.45;;;;;;;17.64;88.33;97284.66;7389286;19;20007;-74
2022/09/14 04:16:30;;;;;;;14.07;6.82;;;;;;;17.62;88.61;97269.88;7386178;19;20538;-73
2022/09/14 04:18:57;;;;;;;13.35;6.20;;;;;;;17.63;89.12;97272.31;7387868;19;20025;-73
2022/09/14 04:21:24;;;;;;;10.85;6.38;;;;;;;17.60;89.51;97274.66;7388508;19;20014;-73
2022/09/14 04:23:52;;;;;;;13.68;6.32;;;;;;;17.62;89.28;97267.22;7386544;19;20014;-72
2022/09/14 04:26:39;;;;;;;12.60;6.15;;;;;;;17.59;89.09;97255.13;7384660;19;20442;-71
2022/09/14 04:29:06;;;;;;;18.17;7.15;;;;;;;17.57;89.27;97256.38;7386221;19;20035;-73
2022/09/14 04:31:33;;;;;;;8.32;5.85;;;;;;;17.58;89.23;97260.69;7390591;19;20006;-73
2022/09/14 04:34:00;;;;;;;12.10;6.45;;;;;;;17.62;89.32;97272.56;7387484;19;20103;-74
2022/09/14 04:36:29;;;;;;;10.52;5.35;;;;;;;17.69;89.02;97263.41;7386589;19;20098;-73
2022/09/14 04:39:02;;;;;;;12.65;6.85;;;;;;;17.65;88.95;97264.09;7383436;19;20466;-74
2022/09/14 04:41:30;;;;;;;9.13;6.35;;;;;;;17.67;89.11;97264.69;7384894;19;20014;-74
2022/09/14 04:43:57;;;;;;;11.20;6.57;;;;;;;17.69;89.35;97267.91;7383418;19;20014;-74
2022/09/14 04:46:35;;;;;;;10.20;5.97;;;;;;;17.71;89.35;97266.63;7384923;19;20014;-74
2022/09/14 04:49:06;;;;;;;9.95;6.65;;;;;;;17.74;89.51;97268.03;7384568;19;20014;-74
2022/09/14 04:51:34;;;;;;;11.15;5.82;;;;;;;17.79;89.55;97268.22;7386582;19;20014;-75
2022/09/14 04:54:02;;;;;;;12.32;6.22;;;;;;;17.85;89.33;97261.97;7383727;19;20485;-74
2022/09/14 04:56:31;;;;;;;10.00;6.43;;;;;;;17.82;89.37;97273.09;7385460;19;20126;-74
2022/09/14 04:59:00;;;;;;;14.00;6.30;;;;;;;17.82;89.47;97275.78;7382970;19;20485;-72
2022/09/14 05:01:29;;;;;;;11.20;6.32;;;;;;;17.80;89.70;97275.22;7383944;19;20014;-73
2022/09/14 05:03:57;;;;;;;9.85;6.03;;;;;;;17.82;89.70;97278.44;7385307;19;20385;-74
2022/09/14 05:06:28;;;;;;;11.63;7.10;;;;;;;17.85;89.47;97274.50;7385004;19;20055;-74
2022/09/14 05:08:58;;;;;;;9.27;6.63;;;;;;;17.86;89.54;97268.13;7383082;19;20014;-73
2022/09/14 05:11:27;;;;;;;9.32;6.88;;;;;;;17.86;89.60;97276.97;7381148;19;20018;-73
2022/09/14 05:13:55;;;;;;;13.10;7.13;;;;;;;17.89;89.64;97270.34;7383244;19;20063;-74
2022/09/14 05:16:25;;;;;;;7.93;6.32;;;;;;;17.92;89.55;97275.22;7385660;19;20010;-75
2022/09/14 05:18:54;;;;;;;15.95;6.43;;;;;;;17.89;89.53;97284.53;7381484;19;20026;-74
2022/09/14 05:21:21;;;;;;;17.60;7.53;;;;;;;17.81;89.57;97327.66;7382802;19;20030;-73
2022/09/14 05:23:56;;;;;;;12.00;6.97;;;;;;;17.85;89.74;97322.66;7386217;19;20255;-75
2022/09/14 05:26:25;;;;;;;13.93;10.20;;;;;;;17.75;89.91;97299.13;7383086;19;20015;-73
2022/09/14 05:28:53;;;;;;;14.73;10.38;;;;;;;17.89;89.58;97305.13;7380049;19;20021;-74
2022/09/14 05:31:21;;;;;;;16.38;10.20;;;;;;;17.92;89.38;97320.72;7384491;19;20023;-74
2022/09/14 05:33:48;;;;;;;20.48;11.13;;;;;;;17.84;89.48;97326.38;7381485;19;20038;-74
2022/09/14 05:36:14;;;;;;;14.70;11.38;;;;;;;17.87;89.59;97318.72;7381258;19;20030;-74
2022/09/14 05:38:42;;;;;;;16.15;11.48;;;;;;;17.87;89.76;97326.75;7382753;19;20046;-75
2022/09/14 05:41:11;;;;;;;15.43;9.65;;;;;;;18.06;89.40;97326.66;7381485;19;20023;-75
2022/09/14 05:43:38;;;;;;;14.35;10.35;;;;;;;18.14;89.33;97326.34;7382489;19;20026;-74
2022/09/14 05:46:08;;;;;;;13.68;10.43;;;;;;;18.21;89.07;97317.16;7384754;19;20031;-74
2022/09/14 05:48:36;;;;;;;15.90;10.48;;;;;;;18.17;89.25;97313.34;7382481;19;20014;-75
2022/09/14 05:51:10;;;;;;;15.23;11.13;;;;;;;18.20;89.23;97320.09;7380284;19;20018;-74
2022/09/14 05:53:37;;;;;;;13.15;9.35;;;;;;;18.29;89.10;97318.69;7383769;19;20006;-71
2022/09/14 05:56:06;;;;;;;12.15;9.93;;;;;;;18.34;88.97;97310.78;7385480;19;20011;-74
2022/09/14 05:58:34;;;;;;;14.63;10.40;;;;;;;18.39;88.92;97294.03;7384533;19;20401;-74
2022/09/14 06:01:11;;;;;;;13.15;9.35;;;;;;;18.48;88.82;97286.44;7375634;19;20031;-75
2022/09/14 06:03:39;;;;;;;11.60;7.97;;;;;;;18.50;88.73;97284.38;7384708;19;20018;-74
2022/09/14 06:06:07;;;;;;;12.70;9.63;;;;;;;18.53;88.69;97284.69;7384900;19;20015;-74
2022/09/14 06:08:34;;;;;;;11.75;8.52;;;;;;;18.57;88.57;97282.41;7383227;19;20596;-75
2022/09/14 06:11:06;;;;;;;12.45;9.75;;;;;;;18.55;88.16;97273.78;7381404;19;20051;-75
2022/09/14 06:13:33;;;;;;;15.07;9.93;;;;;;;18.51;88.42;97268.06;7381701;19;20811;-74
2022/09/14 06:16:11;;;;;;;12.07;9.60;;;;;;;18.56;88.63;97273.53;7379000;19;20035;-74
2022/09/14 06:18:38;;;;;;;13.60;9.27;;;;;;;18.59;88.79;97280.31;7377609;19;20078;-74
2022/09/14 06:21:08;;;;;;;12.57;9.52;;;;;;;18.62;88.81;97282.50;7381576;19;20039;-75
2022/09/14 06:23:35;;;;;;;15.02;9.93;;;;;;;18.66;89.00;97286.34;7380154;19;20508;-74
2022/09/14 06:26:03;;;;;;;14.10;9.98;;;;;;;18.76;88.75;97291.13;7380978;19;20022;-75
2022/09/14 06:28:30;;;;;;;20.90;11.55;;;;;;;18.77;88.69;97307.00;7382583;19;20018;-74
2022/09/14 06:30:57;;;;;;;16.60;10.70;;;;;;;18.83;88.56;97302.56;7382540;19;20043;-73
2022/09/14 06:33:24;;;;;;;16.83;11.02;;;;;;;18.85;88.57;97300.44;7382395;19;20010;-75
2022/09/14 06:35:55;;;;;;;17.27;11.32;;;;;;;18.86;88.64;97286.81;7380836;19;20014;-74
2022/09/14 06:38:22;;;;;;;15.95;10.93;;;;;;;18.84;88.55;97291.59;7381400;19;20018;-75
2022/09/14 06:40:59;;;;;;;14.40;10.25;;;;;;;18.90;88.70;97284.47;7378857;19;20022;-75
2022/09/14 06:43:28;;;;;;;11.95;10.20;;;;;;;18.93;88.36;97285.88;7380366;19;21290;-74
2022/09/14 06:45:59;;;;;;;22.23;12.07;;;;;;;18.85;88.52;97276.31;7382424;19;20018;-74
2022/09/14 06:48:28;;;;;;;15.40;11.57;;;;;;;18.90;88.44;97275.63;7378829;19;20022;-74
2022/09/14 06:50:55;;;;;;;17.92;10.95;;;;;;;19.02;88.15;97279.09;7379541;19;20086;-74
2022/09/14 06:53:22;;;;;;;16.70;11.82;;;;;;;19.08;88.10;97275.47;7382530;19;20014;-71
2022/09/14 06:55:49;;;;;;;16.33;10.80;;;;;;;19.16;87.76;97267.03;7380471;19;20045;-74
2022/09/14 06:58:16;;;;;;;11.45;10.20;;;;;;;19.25;87.86;97273.69;7376418;19;20019;-74
2022/09/14 07:00:43;;;;;;;14.35;10.20;;;;;;;19.28;87.75;97275.88;7378181;19;20018;-73
2022/09/14 07:03:10;;;;;;;15.05;10.32;;;;;;;19.34;87.53;97265.25;7391121;19;20014;-74
2022/09/14 07:05:36;;;;;;;14.73;10.20;;;;;;;19.40;87.45;97269.66;7385970;19;20396;-75
2022/09/14 07:08:03;;;;;;;17.58;10.43;;;;;;;19.46;87.30;97266.03;7388350;19;20007;-75
2022/09/14 07:10:35;;;;;;;12.10;9.65;;;;;;;19.49;87.36;97261.00;7386837;19;20035;-74
2022/09/14 07:13:02;;;;;;;10.80;9.68;;;;;;;19.49;87.28;97270.91;7387305;19;20029;-74
2022/09/14 07:15:29;;;;;;;16.35;10.32;;;;;;;19.59;87.11;97276.47;7384737;19;20380;-74
2022/09/14 07:17:57;;;;;;;12.93;10.05;;;;;;;19.73;87.16;97272.47;7386820;19;20738;-75
2022/09/14 07:20:23;;;;;;;14.60;9.90;;;;;;;19.90;86.92;97277.03;7390014;19;20034;-76
2022/09/14 07:22:50;;;;;;;11.38;9.52;;;;;;;19.96;86.62;97289.50;7390560;19;20018;-75
2022/09/14 07:25:17;;;;;;;10.48;8.38;;;;;;;20.14;86.22;97299.16;7385302;19;20058;-73
2022/09/14 07:27:43;;;;;;;11.02;8.73;;;;;;;20.34;86.06;97296.81;7389688;19;20035;-75
2022/09/14 07:30:11;;;;;;;14.15;9.65;;;;;;;20.37;85.61;97298.22;7389403;19;20025;-76
2022/09/14 07:32:38;;;;;;;14.35;8.15;;;;;;;20.35;85.24;97295.78;7384417;19;20022;-73
2022/09/14 07:35:05;;;;;;;9.52;7.50;;;;;;;20.17;85.51;97287.97;7388622;19;20015;-76
2022/09/14 07:37:31;;;;;;;14.63;7.38;;;;;;;20.16;85.74;97286.31;7388867;19;20038;-75
2022/09/14 07:39:58;;;;;;;16.90;7.50;;;;;;;20.16;86.39;97297.88;7389448;19;20021;-74
2022/09/14 07:42:26;;;;;;;13.70;6.90;;;;;;;20.23;86.11;97292.34;7388333;19;20469;-76
2022/09/14 07:44:53;;;;;;;14.45;6.63;;;;;;;20.35;86.34;97287.72;7389502;19;20027;-75
2022/09/14 07:47:20;;;;;;;9.27;6.70;;;;;;;20.42;86.38;97289.41;7384443;19;20039;-71
2022/09/14 07:49:46;;;;;;;10.07;6.97;;;;;;;20.38;86.30;97299.84;7384493;19;20422;-75
2022/09/14 07:52:13;;;;;;;11.20;6.82;;;;;;;20.63;86.04;97301.31;7388763;19;20018;-74
2022/09/14 07:54:40;;;;;;;10.27;6.70;;;;;;;20.99;85.27;97300.75;7350031;19;20019;-75
2022/09/14 07:57:07;;;;;;;8.27;6.78;;;;;;;21.12;84.97;97301.47;7350871;19;20061;-75
2022/09/14 07:59:34;;;;;;;7.40;6.47;;;;;;;21.42;83.83;97290.28;7352307;19;20857;-72
2022/09/14 08:02:06;;;;;;;10.55;5.97;;;;;;;21.56;83.18;97296.06;7345750;19;20018;-75
2022/09/14 08:04:34;;;;;;;6.10;5.47;;;;;;;21.66;82.42;97301.56;7339019;19;20006;-73
2022/09/14 08:07:02;;;;;;;5.78;5.15;;;;;;;21.64;82.17;97303.69;7342935;19;20392;-74
2022/09/14 08:09:29;;;;;;;7.20;5.35;;;;;;;21.52;82.70;97311.13;7349520;19;20035;-74
2022/09/14 08:11:56;;;;;;;6.53;5.10;;;;;;;21.52;82.72;97314.63;7358340;19;20378;-75
2022/09/14 08:14:24;;;;;;;6.32;4.80;;;;;;;21.79;82.56;97324.59;7361918;19;20625;-75
2022/09/14 08:16:51;;;;;;;9.93;5.25;;;;;;;21.86;82.42;97323.31;7364173;19;20098;-73
2022/09/14 08:19:19;;;;;;;6.75;4.75;;;;;;;21.96;81.74;97332.56;7365908;19;20018;-75
2022/09/14 08:21:51;;;;;;;7.25;4.88;;;;;;;22.19;81.51;97331.47;7361836;19;20055;-72
2022/09/14 08:24:19;;;;;;;8.57;4.72;;;;;;;22.17;81.04;97334.41;7361934;19;20025;-75
2022/09/14 08:26:47;;;;;;;5.30;4.47;;;;;;;22.47;80.96;97330.34;7364636;19;20022;-72
2022/09/14 08:29:15;;;;;;;6.40;4.55;;;;;;;22.58;79.94;97327.47;7363240;19;20100;-70
2022/09/14 08:31:44;;;;;;;8.35;5.25;;;;;;;22.65;78.99;97334.53;7368449;19;20041;-74
2022/09/14 08:34:12;;;;;;;6.85;4.18;;;;;;;22.65;79.14;97343.44;7373075;19;20021;-73
2022/09/14 08:36:41;;;;;;;6.32;4.07;;;;;;;22.42;78.81;97355.38;7376281;19;20022;-73
2022/09/14 08:39:10;;;;;;;6.75;4.00;;;;;;;22.17;78.39;97353.25;7375219;19;20014;-73
2022/09/14 08:41:42;;;;;;;8.35;3.72;;;;;;;22.56;78.04;97343.09;7376837;19;20082;-72
2022/09/14 08:44:24;;;;;;;3.47;3.17;;;;;;;22.96;77.23;97332.81;7376480;19;20351;-74
2022/09/14 08:47:01;;;;;;;8.48;3.50;;;;;;;22.71;77.16;97346.97;7376532;19;20018;-74
2022/09/14 08:50:04;;;;;;;3.47;2.92;;;;;;;22.61;77.76;97371.97;7376013;19;20092;-75
2022/09/14 08:52:45;;;;;;;5.32;4.00;;;;;;;22.39;78.82;97380.16;7372331;19;20028;-73
2022/09/14 08:55:37;;;;;;;5.50;3.35;;;;;;;22.69;78.03;97395.75;7371198;19;20035;-74
2022/09/14 08:58:09;;;;;;;4.43;3.22;;;;;;;22.91;77.75;97392.97;7374727;19;20022;-74
2022/09/14 09:00:45;;;;;;;5.25;3.70;;;;;;;23.18;76.63;97389.38;7375421;19;20098;-73
2022/09/14 09:03:18;;;;;;;6.25;3.58;;;;;;;23.11;76.15;97394.19;7375351;19;20022;-73
2022/09/14 09:05:53;;;;;;;5.03;2.97;;;;;;;23.45;74.73;97368.47;7372680;19;20668;-74
2022/09/14 09:08:46;;;;;;;8.70;3.88;;;;;;;23.81;75.43;97362.44;7375795;19;20015;-74
2022/09/14 09:11:17;;;;;;;14.27;3.53;;;;;;;24.08;75.25;97344.09;7375539;19;20039;-73
2022/09/14 09:13:44;;;;;;;10.15;3.13;;;;;;;24.09;74.68;97340.34;7373512;19;20094;-74
2022/09/14 09:16:11;;;;;;;5.53;3.30;;;;;;;23.41;74.93;97339.59;7374070;19;20387;-74
2022/09/14 09:18:43;;;;;;;6.95;3.20;;;;;;;23.33;74.81;97354.41;7372843;19;20034;-71
2022/09/14 09:21:19;;;;;;;7.30;3.00;;;;;;;23.14;72.59;97362.09;7372515;19;20078;-73
2022/09/14 09:23:46;;;;;;;8.52;3.78;;;;;;;23.10;75.65;97368.31;7374119;19;20025;-73
2022/09/14 09:26:26;;;;;;;6.72;3.72;;;;;;;22.92;77.75;97373.00;7374121;19;20093;-73
2022/09/14 09:28:58;;;;;;;5.28;3.40;;;;;;;22.97;75.71;97372.25;7370242;19;20707;-75
2022/09/14 09:31:43;;;;;;;7.63;4.20;;;;;;;22.59;76.96;97363.31;7376114;19;20030;-73
2022/09/14 09:34:34;;;;;;;7.88;3.90;;;;;;;23.21;76.62;97357.28;7372659;19;20025;-74
2022/09/14 09:37:18;;;;;;;6.88;3.60;;;;;;;23.65;75.39;97362.34;7370953;19;20033;-74
2022/09/14 09:39:45;;;;;;;5.32;3.63;;;;;;;24.00;72.17;97355.44;7371973;19;20161;-74
2022/09/14 09:42:27;;;;;;;6.38;3.00;;;;;;;24.21;70.16;97348.19;7371757;19;21179;-75
2022/09/14 09:44:54;;;;;;;3.67;2.38;;;;;;;24.41;66.14;97339.28;7368293;19;20015;-72
2022/09/14 09:47:38;;;;;;;4.22;2.65;;;;;;;24.06;69.19;97324.66;7371726;19;20014;-75
2022/09/14 09:50:16;;;;;;;4.72;2.90;;;;;;;23.57;70.77;97329.66;7370361;19;20010;-74
2022/09/14 09:52:57;;;;;;;6.45;3.00;;;;;;;23.38;73.21;97335.53;7369077;19;20043;-74
2022/09/14 09:55:37;;;;;;;6.03;2.80;;;;;;;23.31;72.77;97334.13;7366495;19;20030;-73
2022/09/14 09:58:35;;;;;;;8.68;3.58;;;;;;;23.56;71.97;97325.31;7366327;19;20011;-75
2022/09/14 10:01:08;;;;;;;7.82;2.70;;;;;;;24.04;71.19;97316.03;7371491;19;20931;-72
2022/09/14 10:03:39;;;;;;;6.35;2.65;;;;;;;23.73;69.73;97295.44;7374817;19;21376;-75
2022/09/14 10:06:11;;;;;;;5.82;2.45;;;;;;;24.09;69.54;97294.41;7378098;19;20077;-75
2022/09/14 10:08:43;;;;;;;7.18;2.72;;;;;;;23.80;69.57;97294.09;7378180;19;20021;-75
2022/09/14 10:11:31;;;;;;;7.03;2.63;;;;;;;23.97;69.44;97282.25;7375133;19;20038;-76
2022/09/14 10:13:58;;;;;;;5.78;2.50;;;;;;;23.78;70.89;97290.84;7375876;19;20026;-75
2022/09/14 10:16:30;;;;;;;3.95;2.28;;;;;;;23.85;70.34;97285.19;7376368;19;20383;-74
2022/09/14 10:18:58;;;;;;;6.15;2.10;;;;;;;23.77;68.95;97278.41;7371128;19;20018;-74
2022/09/14 10:21:25;;;;;;;8.68;2.60;;;;;;;23.97;67.91;97276.84;7374272;19;20026;-72
2022/09/14 10:24:19;;;;;;;6.40;2.38;;;;;;;23.85;68.59;97271.66;7376203;19;20022;-76
2022/09/14 10:26:46;;;;;;;4.53;1.90;;;;;;;23.72;68.08;97273.00;7374842;19;20510;-72
2022/09/14 10:29:34;;;;;;;3.60;2.20;;;;;;;23.73;68.38;97271.94;7370591;19;20038;-76
2022/09/14 10:32:22;;;;;;;6.65;2.40;;;;;;;23.87;68.60;97266.81;7376628;19;21458;-76
2022/09/14 10:34:50;;;;;;;3.10;2.15;;;;;;;24.27;66.97;97265.22;7372530;19;20048;-75
2022/09/14 10:37:27;;;;;;;3.60;2.05;;;;;;;24.78;65.46;97259.78;7379432;19;20018;-76
2022/09/14 10:40:03;;;;;;;6.88;2.55;;;;;;;24.94;66.89;97250.50;7378741;19;20351;-73
2022/09/14 10:42:45;;;;;;;7.22;2.38;;;;;;;24.36;66.16;97251.97;7380456;19;20078;-73
2022/09/14 10:45:13;;;;;;;;;;;;;;;24.20;66.13;97245.78;7379190;19;20014;-74
2022/09/14 10:47:49;;;;;;;4.30;2.15;;;;;;;24.55;63.77;97236.03;7382828;19;19919;-74
2022/09/14 10:50:54;;;;;;;3.30;2.45;;;;;;;24.41;67.61;97241.97;7380095;19;20037;-72
2022/09/14 10:53:32;;;;;;;3.78;2.20;;;;;;;24.59;66.83;97237.09;7371969;19;20026;-74
2022/09/14 10:56:23;;;;;;;5.60;2.30;;;;;;;24.88;64.93;97231.84;7379928;19;20384;-75
2022/09/14 10:59:30;;;;;;;4.07;2.20;;;;;;;24.89;61.30;97226.19;7380667;19;20018;-75
2022/09/14 11:02:38;;;;;;;2.05;1.85;;;;;;;24.80;65.37;97222.41;7379109;19;20026;-76
2022/09/14 11:05:37;;;;;;;4.78;2.17;;;;;;;24.97;66.36;97206.66;7381915;19;20014;-75
2022/09/14 11:08:04;;;;;;;3.88;1.70;;;;;;;24.64;64.21;97208.13;7379977;19;20654;-76
2022/09/14 11:10:42;;;;;;;5.22;2.13;;;;;;;24.80;64.67;97203.47;7378921;19;20018;-74
2022/09/14 11:13:50;;;;;;;4.50;2.50;;;;;;;24.91;66.74;97204.28;7380978;19;20022;-74
2022/09/14 11:16:48;;;;;;;6.28;2.47;;;;;;;24.94;65.07;97195.59;7381683;19;20040;-75
2022/09/14 11:19:34;;;;;;;3.15;2.28;;;;;;;25.02;67.13;97199.63;7380669;19;20038;-75
2022/09/14 11:22:00;;;;;;;4.57;2.47;;;;;;;25.46;62.69;97196.97;7378830;19;20517;-75
2022/09/14 11:24:59;;;;;;;4.15;2.17;;;;;;;25.49;62.12;97187.47;7379381;19;20340;-74
2022/09/14 11:27:44;;;;;;;5.18;2.25;;;;;;;25.79;61.81;97189.97;7378076;19;20048;-76
2022/09/14 11:30:15;;;;;;;6.68;2.03;;;;;;;25.76;62.05;97179.69;7381724;19;20034;-76
2022/09/14 11:32:50;;;;;;;6.90;2.43;;;;;;;25.25;63.18;97181.94;7383072;19;20019;-75
2022/09/14 11:35:19;;;;;;;6.38;2.00;;;;;;;25.27;63.78;97188.69;7385623;19;20014;-73
2022/09/14 11:37:59;;;;;;;8.00;2.30;;;;;;;25.25;61.90;97185.47;7377910;19;20025;-75
2022/09/14 11:40:30;;;;;;;3.03;1.70;;;;;;;25.25;61.92;97182.75;7378711;19;20043;-72
2022/09/14 11:42:58;;;;;;;5.55;1.77;;;;;;;25.19;60.56;97179.25;7388987;19;20681;-75
2022/09/14 11:45:33;;;;;;;3.80;1.58;;;;;;;25.20;61.13;97182.78;7385959;19;20062;-75
2022/09/14 11:48:16;;;;;;;6.80;1.70;;;;;;;25.61;60.68;97177.09;7388105;19;20018;-73
2022/09/14 11:51:07;;;;;;;2.38;1.48;;;;;;;26.28;61.62;97172.75;7377817;19;20041;-73
2022/09/14 11:53:34;;;;;;;3.40;1.60;;;;;;;26.07;59.48;97171.34;7381688;19;20022;-73